sensor_id;sensor_type;location;lat;lon;timestamp;pressure;altitude;pressure_sealevel;temperature
71463;BMP180;59266;52.608;13.260;2023-05-20T00:02:13;102275.00;;;9.80
71463;BMP180;59266;52.608;13.260;2023-05-20T00:04:40;102274.00;;;9.70
71463;BMP180;59266;52.608;13.260;2023-05-20T00:07:09;102271.00;;;9.70
71463;BMP180;59266;52.608;13.260;2023-05-20T00:09:38;102269.00;;;9.70
71463;BMP180;59266;52.608;13.260;2023-05-20T00:12:05;102261.00;;;9.60
71463;BMP180;59266;52.608;13.260;2023-05-20T00:14:31;102262.00;;;9.70
71463;BMP180;59266;52.608;13.260;2023-05-20T00:16:58;102261.00;;;9.60
71463;BMP180;59266;52.608;13.260;2023-05-20T00:19:25;102260.00;;;9.60
71463;BMP180;59266;52.608;13.260;2023-05-20T00:21:51;102265.00;;;9.60
71463;BMP180;59266;52.608;13.260;2023-05-20T00:24:18;102264.00;;;9.60
71463;BMP180;59266;52.608;13.260;2023-05-20T00:26:45;102267.00;;;9.50
71463;BMP180;59266;52.608;13.260;2023-05-20T00:29:12;102261.00;;;9.50
71463;BMP180;59266;52.608;13.260;2023-05-20T00:31:38;102264.00;;;9.40
71463;BMP180;59266;52.608;13.260;2023-05-20T00:34:07;102272.00;;;9.50
71463;BMP180;59266;52.608;13.260;2023-05-20T00:36:34;102267.00;;;9.50
71463;BMP180;59266;52.608;13.260;2023-05-20T00:39:01;102269.00;;;9.40
71463;BMP180;59266;52.608;13.260;2023-05-20T00:41:27;102261.00;;;9.40
71463;BMP180;59266;52.608;13.260;2023-05-20T00:43:55;102264.00;;;9.40
71463;BMP180;59266;52.608;13.260;2023-05-20T00:46:25;102266.00;;;9.40
71463;BMP180;59266;52.608;13.260;2023-05-20T00:48:52;102270.00;;;9.40
71463;BMP180;59266;52.608;13.260;2023-05-20T00:51:19;102265.00;;;9.30
71463;BMP180;59266;52.608;13.260;2023-05-20T00:53:46;102272.00;;;9.40
71463;BMP180;59266;52.608;13.260;2023-05-20T00:56:13;102262.00;;;9.30
71463;BMP180;59266;52.608;13.260;2023-05-20T00:58:40;102259.00;;;9.40
71463;BMP180;59266;52.608;13.260;2023-05-20T01:01:07;102258.00;;;9.40
71463;BMP180;59266;52.608;13.260;2023-05-20T01:03:33;102249.00;;;9.20
71463;BMP180;59266;52.608;13.260;2023-05-20T01:06:01;102249.00;;;9.20
71463;BMP180;59266;52.608;13.260;2023-05-20T01:08:28;102242.00;;;9.30
71463;BMP180;59266;52.608;13.260;2023-05-20T01:11:06;102256.00;;;9.30
71463;BMP180;59266;52.608;13.260;2023-05-20T01:13:44;102251.00;;;9.20
71463;BMP180;59266;52.608;13.260;2023-05-20T01:16:14;102251.00;;;9.30
71463;BMP180;59266;52.608;13.260;2023-05-20T01:18:42;102253.00;;;9.20
71463;BMP180;59266;52.608;13.260;2023-05-20T01:21:12;102248.00;;;9.20
71463;BMP180;59266;52.608;13.260;2023-05-20T01:23:41;102251.00;;;9.30
71463;BMP180;59266;52.608;13.260;2023-05-20T01:26:08;102253.00;;;9.20
71463;BMP180;59266;52.608;13.260;2023-05-20T01:28:40;102249.00;;;9.10
71463;BMP180;59266;52.608;13.260;2023-05-20T01:31:14;102245.00;;;9.10
71463;BMP180;59266;52.608;13.260;2023-05-20T01:33:42;102243.00;;;9.10
71463;BMP180;59266;52.608;13.260;2023-05-20T01:36:09;102235.00;;;9.10
71463;BMP180;59266;52.608;13.260;2023-05-20T01:38:36;102241.00;;;9.10
71463;BMP180;59266;52.608;13.260;2023-05-20T01:41:04;102232.00;;;9.00
71463;BMP180;59266;52.608;13.260;2023-05-20T01:43:32;102228.00;;;9.10
71463;BMP180;59266;52.608;13.260;2023-05-20T01:45:58;102240.00;;;9.10
71463;BMP180;59266;52.608;13.260;2023-05-20T01:48:28;102235.00;;;9.00
71463;BMP180;59266;52.608;13.260;2023-05-20T01:50:54;102231.00;;;9.00
71463;BMP180;59266;52.608;13.260;2023-05-20T01:53:21;102232.00;;;9.10
71463;BMP180;59266;52.608;13.260;2023-05-20T01:55:47;102238.00;;;9.10
71463;BMP180;59266;52.608;13.260;2023-05-20T01:58:14;102233.00;;;9.00
71463;BMP180;59266;52.608;13.260;2023-05-20T02:00:41;102221.00;;;9.00
71463;BMP180;59266;52.608;13.260;2023-05-20T02:03:07;102226.00;;;8.90
71463;BMP180;59266;52.608;13.260;2023-05-20T02:05:34;102218.00;;;8.80
71463;BMP180;59266;52.608;13.260;2023-05-20T02:08:02;102215.00;;;8.90
71463;BMP180;59266;52.608;13.260;2023-05-20T02:10:30;102217.00;;;9.00
71463;BMP180;59266;52.608;13.260;2023-05-20T02:12:56;102212.00;;;8.90
71463;BMP180;59266;52.608;13.260;2023-05-20T02:15:23;102212.00;;;8.90
71463;BMP180;59266;52.608;13.260;2023-05-20T02:17:50;102218.00;;;8.90
71463;BMP180;59266;52.608;13.260;2023-05-20T02:20:16;102219.00;;;8.90
71463;BMP180;59266;52.608;13.260;2023-05-20T02:22:44;102226.00;;;9.00
71463;BMP180;59266;52.608;13.260;2023-05-20T02:25:11;102220.00;;;8.90
71463;BMP180;59266;52.608;13.260;2023-05-20T02:27:38;102227.00;;;8.90
71463;BMP180;59266;52.608;13.260;2023-05-20T02:30:06;102228.00;;;8.90
71463;BMP180;59266;52.608;13.260;2023-05-20T02:32:34;102220.00;;;8.90
71463;BMP180;59266;52.608;13.260;2023-05-20T02:35:00;102223.00;;;8.80
71463;BMP180;59266;52.608;13.260;2023-05-20T02:37:27;102225.00;;;8.80
71463;BMP180;59266;52.608;13.260;2023-05-20T02:39:54;102224.00;;;8.80
71463;BMP180;59266;52.608;13.260;2023-05-20T02:42:22;102225.00;;;8.70
71463;BMP180;59266;52.608;13.260;2023-05-20T02:44:49;102218.00;;;8.70
71463;BMP180;59266;52.608;13.260;2023-05-20T02:47:16;102217.00;;;8.70
71463;BMP180;59266;52.608;13.260;2023-05-20T02:49:43;102214.00;;;8.60
71463;BMP180;59266;52.608;13.260;2023-05-20T02:52:11;102220.00;;;8.70
71463;BMP180;59266;52.608;13.260;2023-05-20T02:54:39;102220.00;;;8.60
71463;BMP180;59266;52.608;13.260;2023-05-20T02:57:06;102217.00;;;8.70
71463;BMP180;59266;52.608;13.260;2023-05-20T02:59:32;102231.00;;;8.70
71463;BMP180;59266;52.608;13.260;2023-05-20T03:01:59;102223.00;;;8.70
71463;BMP180;59266;52.608;13.260;2023-05-20T03:04:26;102233.00;;;8.70
71463;BMP180;59266;52.608;13.260;2023-05-20T03:06:53;102224.00;;;8.80
71463;BMP180;59266;52.608;13.260;2023-05-20T03:09:24;102223.00;;;8.70
71463;BMP180;59266;52.608;13.260;2023-05-20T03:11:50;102226.00;;;8.70
71463;BMP180;59266;52.608;13.260;2023-05-20T03:14:17;102221.00;;;8.70
71463;BMP180;59266;52.608;13.260;2023-05-20T03:16:44;102225.00;;;8.70
71463;BMP180;59266;52.608;13.260;2023-05-20T03:19:11;102232.00;;;8.70
71463;BMP180;59266;52.608;13.260;2023-05-20T03:21:37;102241.00;;;8.70
71463;BMP180;59266;52.608;13.260;2023-05-20T03:24:04;102234.00;;;8.70
71463;BMP180;59266;52.608;13.260;2023-05-20T03:26:31;102239.00;;;8.70
71463;BMP180;59266;52.608;13.260;2023-05-20T03:28:59;102235.00;;;8.80
71463;BMP180;59266;52.608;13.260;2023-05-20T03:31:26;102243.00;;;8.80
71463;BMP180;59266;52.608;13.260;2023-05-20T03:33:54;102238.00;;;8.90
71463;BMP180;59266;52.608;13.260;2023-05-20T03:36:21;102234.00;;;8.80
71463;BMP180;59266;52.608;13.260;2023-05-20T03:38:47;102239.00;;;8.90
71463;BMP180;59266;52.608;13.260;2023-05-20T03:41:14;102243.00;;;9.00
71463;BMP180;59266;52.608;13.260;2023-05-20T03:43:41;102239.00;;;9.00
71463;BMP180;59266;52.608;13.260;2023-05-20T03:46:07;102248.00;;;9.00
71463;BMP180;59266;52.608;13.260;2023-05-20T03:48:34;102239.00;;;9.10
71463;BMP180;59266;52.608;13.260;2023-05-20T03:51:01;102246.00;;;9.30
71463;BMP180;59266;52.608;13.260;2023-05-20T03:53:28;102246.00;;;9.30
71463;BMP180;59266;52.608;13.260;2023-05-20T03:55:57;102248.00;;;9.30
71463;BMP180;59266;52.608;13.260;2023-05-20T03:58:23;102245.00;;;9.30
71463;BMP180;59266;52.608;13.260;2023-05-20T04:00:50;102251.00;;;9.40
71463;BMP180;59266;52.608;13.260;2023-05-20T04:03:17;102252.00;;;9.60
71463;BMP180;59266;52.608;13.260;2023-05-20T04:05:44;102247.00;;;9.60
71463;BMP180;59266;52.608;13.260;2023-05-20T04:08:11;102246.00;;;9.60
71463;BMP180;59266;52.608;13.260;2023-05-20T04:10:46;102247.00;;;9.80
71463;BMP180;59266;52.608;13.260;2023-05-20T04:13:13;102247.00;;;9.80
71463;BMP180;59266;52.608;13.260;2023-05-20T04:15:39;102245.00;;;9.80
71463;BMP180;59266;52.608;13.260;2023-05-20T04:18:07;102247.00;;;10.00
71463;BMP180;59266;52.608;13.260;2023-05-20T04:20:34;102250.00;;;10.00
71463;BMP180;59266;52.608;13.260;2023-05-20T04:23:01;102248.00;;;10.00
71463;BMP180;59266;52.608;13.260;2023-05-20T04:25:27;102250.00;;;10.00
71463;BMP180;59266;52.608;13.260;2023-05-20T04:27:54;102250.00;;;10.10
71463;BMP180;59266;52.608;13.260;2023-05-20T04:30:22;102240.00;;;10.20
71463;BMP180;59266;52.608;13.260;2023-05-20T04:32:49;102242.00;;;10.20
71463;BMP180;59266;52.608;13.260;2023-05-20T04:35:16;102235.00;;;10.30
71463;BMP180;59266;52.608;13.260;2023-05-20T04:37:43;102243.00;;;10.40
71463;BMP180;59266;52.608;13.260;2023-05-20T04:40:18;102242.00;;;10.40
71463;BMP180;59266;52.608;13.260;2023-05-20T04:42:45;102234.00;;;10.50
71463;BMP180;59266;52.608;13.260;2023-05-20T04:45:12;102243.00;;;10.50
71463;BMP180;59266;52.608;13.260;2023-05-20T04:47:38;102249.00;;;10.60
71463;BMP180;59266;52.608;13.260;2023-05-20T04:50:09;102249.00;;;10.60
71463;BMP180;59266;52.608;13.260;2023-05-20T04:52:38;102252.00;;;10.70
71463;BMP180;59266;52.608;13.260;2023-05-20T04:55:07;102249.00;;;10.80
71463;BMP180;59266;52.608;13.260;2023-05-20T04:57:37;102252.00;;;10.80
71463;BMP180;59266;52.608;13.260;2023-05-20T05:00:09;102249.00;;;10.90
71463;BMP180;59266;52.608;13.260;2023-05-20T05:02:38;102252.00;;;10.90
71463;BMP180;59266;52.608;13.260;2023-05-20T05:05:05;102244.00;;;10.80
71463;BMP180;59266;52.608;13.260;2023-05-20T05:07:34;102245.00;;;10.90
71463;BMP180;59266;52.608;13.260;2023-05-20T05:10:03;102232.00;;;11.00
71463;BMP180;59266;52.608;13.260;2023-05-20T05:12:30;102239.00;;;10.90
71463;BMP180;59266;52.608;13.260;2023-05-20T05:14:58;102228.00;;;11.00
71463;BMP180;59266;52.608;13.260;2023-05-20T05:17:25;102233.00;;;11.00
71463;BMP180;59266;52.608;13.260;2023-05-20T05:19:52;102233.00;;;11.20
71463;BMP180;59266;52.608;13.260;2023-05-20T05:22:20;102226.00;;;11.40
71463;BMP180;59266;52.608;13.260;2023-05-20T05:24:47;102224.00;;;11.50
71463;BMP180;59266;52.608;13.260;2023-05-20T05:27:13;102228.00;;;11.40
71463;BMP180;59266;52.608;13.260;2023-05-20T05:29:40;102223.00;;;11.30
71463;BMP180;59266;52.608;13.260;2023-05-20T05:32:07;102232.00;;;11.40
71463;BMP180;59266;52.608;13.260;2023-05-20T05:34:34;102223.00;;;11.60
71463;BMP180;59266;52.608;13.260;2023-05-20T05:37:01;102229.00;;;11.70
71463;BMP180;59266;52.608;13.260;2023-05-20T05:39:28;102219.00;;;11.70
71463;BMP180;59266;52.608;13.260;2023-05-20T05:41:54;102223.00;;;11.70
71463;BMP180;59266;52.608;13.260;2023-05-20T05:44:21;102230.00;;;11.60
71463;BMP180;59266;52.608;13.260;2023-05-20T05:46:49;102231.00;;;11.80
71463;BMP180;59266;52.608;13.260;2023-05-20T05:49:16;102231.00;;;11.90
71463;BMP180;59266;52.608;13.260;2023-05-20T05:51:43;102225.00;;;12.00
71463;BMP180;59266;52.608;13.260;2023-05-20T05:54:09;102213.00;;;12.10
71463;BMP180;59266;52.608;13.260;2023-05-20T05:56:36;102221.00;;;12.10
71463;BMP180;59266;52.608;13.260;2023-05-20T05:59:03;102212.00;;;12.00
71463;BMP180;59266;52.608;13.260;2023-05-20T06:01:30;102223.00;;;12.20
71463;BMP180;59266;52.608;13.260;2023-05-20T06:03:57;102211.00;;;12.40
71463;BMP180;59266;52.608;13.260;2023-05-20T06:06:24;102202.00;;;12.50
71463;BMP180;59266;52.608;13.260;2023-05-20T06:08:50;102210.00;;;12.60
71463;BMP180;59266;52.608;13.260;2023-05-20T06:11:17;102208.00;;;12.60
71463;BMP180;59266;52.608;13.260;2023-05-20T06:13:44;102214.00;;;12.80
71463;BMP180;59266;52.608;13.260;2023-05-20T06:16:11;102208.00;;;12.60
71463;BMP180;59266;52.608;13.260;2023-05-20T06:18:37;102205.00;;;12.60
71463;BMP180;59266;52.608;13.260;2023-05-20T06:21:04;102201.00;;;12.50
71463;BMP180;59266;52.608;13.260;2023-05-20T06:23:31;102204.00;;;12.70
71463;BMP180;59266;52.608;13.260;2023-05-20T06:25:58;102211.00;;;12.90
71463;BMP180;59266;52.608;13.260;2023-05-20T06:28:26;102210.00;;;12.80
71463;BMP180;59266;52.608;13.260;2023-05-20T06:30:54;102209.00;;;12.90
71463;BMP180;59266;52.608;13.260;2023-05-20T06:33:22;102207.00;;;12.80
71463;BMP180;59266;52.608;13.260;2023-05-20T06:35:52;102210.00;;;12.80
71463;BMP180;59266;52.608;13.260;2023-05-20T06:38:20;102209.00;;;13.00
71463;BMP180;59266;52.608;13.260;2023-05-20T06:40:47;102206.00;;;13.40
71463;BMP180;59266;52.608;13.260;2023-05-20T06:43:17;102206.00;;;13.60
71463;BMP180;59266;52.608;13.260;2023-05-20T06:45:44;102209.00;;;13.30
71463;BMP180;59266;52.608;13.260;2023-05-20T06:48:11;102217.00;;;13.40
71463;BMP180;59266;52.608;13.260;2023-05-20T06:50:38;102213.00;;;13.30
71463;BMP180;59266;52.608;13.260;2023-05-20T06:53:04;102210.00;;;13.50
71463;BMP180;59266;52.608;13.260;2023-05-20T06:55:31;102212.00;;;13.20
71463;BMP180;59266;52.608;13.260;2023-05-20T06:57:58;102206.00;;;13.20
71463;BMP180;59266;52.608;13.260;2023-05-20T07:00:25;102205.00;;;13.20
71463;BMP180;59266;52.608;13.260;2023-05-20T07:02:52;102207.00;;;13.40
71463;BMP180;59266;52.608;13.260;2023-05-20T07:05:19;102202.00;;;13.40
71463;BMP180;59266;52.608;13.260;2023-05-20T07:07:45;102193.00;;;13.70
71463;BMP180;59266;52.608;13.260;2023-05-20T07:10:12;102192.00;;;13.90
71463;BMP180;59266;52.608;13.260;2023-05-20T07:12:39;102199.00;;;14.00
71463;BMP180;59266;52.608;13.260;2023-05-20T07:15:07;102206.00;;;14.10
71463;BMP180;59266;52.608;13.260;2023-05-20T07:17:34;102206.00;;;14.20
71463;BMP180;59266;52.608;13.260;2023-05-20T07:20:01;102204.00;;;14.20
71463;BMP180;59266;52.608;13.260;2023-05-20T07:22:28;102206.00;;;14.30
71463;BMP180;59266;52.608;13.260;2023-05-20T07:24:55;102202.00;;;14.40
71463;BMP180;59266;52.608;13.260;2023-05-20T07:27:22;102199.00;;;14.50
71463;BMP180;59266;52.608;13.260;2023-05-20T07:29:49;102200.00;;;14.20
71463;BMP180;59266;52.608;13.260;2023-05-20T07:32:16;102203.00;;;14.10
71463;BMP180;59266;52.608;13.260;2023-05-20T07:34:42;102210.00;;;14.30
71463;BMP180;59266;52.608;13.260;2023-05-20T07:37:09;102213.00;;;14.20
71463;BMP180;59266;52.608;13.260;2023-05-20T07:39:38;102205.00;;;14.10
71463;BMP180;59266;52.608;13.260;2023-05-20T07:42:04;102194.00;;;14.30
71463;BMP180;59266;52.608;13.260;2023-05-20T07:44:31;102191.00;;;14.40
71463;BMP180;59266;52.608;13.260;2023-05-20T07:46:58;102192.00;;;14.10
71463;BMP180;59266;52.608;13.260;2023-05-20T07:49:25;102188.00;;;14.50
71463;BMP180;59266;52.608;13.260;2023-05-20T07:51:52;102189.00;;;14.60
71463;BMP180;59266;52.608;13.260;2023-05-20T07:54:18;102188.00;;;15.00
71463;BMP180;59266;52.608;13.260;2023-05-20T07:56:46;102189.00;;;15.20
71463;BMP180;59266;52.608;13.260;2023-05-20T07:59:13;102182.00;;;15.30
71463;BMP180;59266;52.608;13.260;2023-05-20T08:01:40;102180.00;;;15.30
71463;BMP180;59266;52.608;13.260;2023-05-20T08:04:07;102177.00;;;15.30
71463;BMP180;59266;52.608;13.260;2023-05-20T08:06:34;102168.00;;;15.20
71463;BMP180;59266;52.608;13.260;2023-05-20T08:09:01;102174.00;;;15.40
71463;BMP180;59266;52.608;13.260;2023-05-20T08:11:29;102178.00;;;15.30
71463;BMP180;59266;52.608;13.260;2023-05-20T08:13:55;102165.00;;;15.70
71463;BMP180;59266;52.608;13.260;2023-05-20T08:16:22;102174.00;;;15.70
71463;BMP180;59266;52.608;13.260;2023-05-20T08:18:49;102176.00;;;15.70
71463;BMP180;59266;52.608;13.260;2023-05-20T08:21:16;102179.00;;;15.90
71463;BMP180;59266;52.608;13.260;2023-05-20T08:23:42;102164.00;;;15.90
71463;BMP180;59266;52.608;13.260;2023-05-20T08:26:17;102159.00;;;16.80
71463;BMP180;59266;52.608;13.260;2023-05-20T08:28:43;102158.00;;;16.80
71463;BMP180;59266;52.608;13.260;2023-05-20T08:31:10;102153.00;;;17.00
71463;BMP180;59266;52.608;13.260;2023-05-20T08:33:37;102153.00;;;17.30
71463;BMP180;59266;52.608;13.260;2023-05-20T08:36:04;102161.00;;;17.40
71463;BMP180;59266;52.608;13.260;2023-05-20T08:38:34;102156.00;;;17.30
71463;BMP180;59266;52.608;13.260;2023-05-20T08:41:02;102146.00;;;17.10
71463;BMP180;59266;52.608;13.260;2023-05-20T08:43:29;102145.00;;;17.30
71463;BMP180;59266;52.608;13.260;2023-05-20T08:45:58;102151.00;;;17.20
71463;BMP180;59266;52.608;13.260;2023-05-20T08:48:26;102153.00;;;17.50
71463;BMP180;59266;52.608;13.260;2023-05-20T08:50:56;102144.00;;;17.00
71463;BMP180;59266;52.608;13.260;2023-05-20T08:53:23;102142.00;;;17.60
71463;BMP180;59266;52.608;13.260;2023-05-20T08:55:55;102142.00;;;17.60
71463;BMP180;59266;52.608;13.260;2023-05-20T08:58:26;102145.00;;;18.10
71463;BMP180;59266;52.608;13.260;2023-05-20T09:00:54;102137.00;;;18.00
71463;BMP180;59266;52.608;13.260;2023-05-20T09:03:20;102137.00;;;18.20
71463;BMP180;59266;52.608;13.260;2023-05-20T09:05:47;102130.00;;;18.30
71463;BMP180;59266;52.608;13.260;2023-05-20T09:08:14;102135.00;;;18.60
71463;BMP180;59266;52.608;13.260;2023-05-20T09:10:41;102127.00;;;18.70
71463;BMP180;59266;52.608;13.260;2023-05-20T09:13:09;102132.00;;;18.90
71463;BMP180;59266;52.608;13.260;2023-05-20T09:15:37;102129.00;;;18.60
71463;BMP180;59266;52.608;13.260;2023-05-20T09:18:07;102138.00;;;18.50
71463;BMP180;59266;52.608;13.260;2023-05-20T09:20:36;102134.00;;;18.10
71463;BMP180;59266;52.608;13.260;2023-05-20T09:23:08;102140.00;;;18.00
71463;BMP180;59266;52.608;13.260;2023-05-20T09:25:35;102147.00;;;18.20
71463;BMP180;59266;52.608;13.260;2023-05-20T09:28:06;102142.00;;;18.40
71463;BMP180;59266;52.608;13.260;2023-05-20T09:30:34;102132.00;;;18.20
71463;BMP180;59266;52.608;13.260;2023-05-20T09:33:03;102133.00;;;18.30
71463;BMP180;59266;52.608;13.260;2023-05-20T09:35:34;102133.00;;;18.50
71463;BMP180;59266;52.608;13.260;2023-05-20T09:38:04;102128.00;;;18.10
71463;BMP180;59266;52.608;13.260;2023-05-20T09:40:31;102130.00;;;18.40
71463;BMP180;59266;52.608;13.260;2023-05-20T09:43:01;102134.00;;;18.20
71463;BMP180;59266;52.608;13.260;2023-05-20T09:45:29;102135.00;;;18.40
71463;BMP180;59266;52.608;13.260;2023-05-20T09:47:56;102132.00;;;18.10
71463;BMP180;59266;52.608;13.260;2023-05-20T09:50:24;102130.00;;;17.90
71463;BMP180;59266;52.608;13.260;2023-05-20T09:52:52;102130.00;;;17.90
71463;BMP180;59266;52.608;13.260;2023-05-20T09:55:22;102133.00;;;17.60
71463;BMP180;59266;52.608;13.260;2023-05-20T09:57:49;102133.00;;;17.80
71463;BMP180;59266;52.608;13.260;2023-05-20T10:00:17;102137.00;;;17.50
71463;BMP180;59266;52.608;13.260;2023-05-20T10:02:49;102138.00;;;17.90
71463;BMP180;59266;52.608;13.260;2023-05-20T10:05:21;102149.00;;;17.90
71463;BMP180;59266;52.608;13.260;2023-05-20T10:08:16;102135.00;;;18.30
71463;BMP180;59266;52.608;13.260;2023-05-20T10:10:58;102138.00;;;18.20
71463;BMP180;59266;52.608;13.260;2023-05-20T10:14:05;102136.00;;;18.20
71463;BMP180;59266;52.608;13.260;2023-05-20T10:16:47;102136.00;;;17.70
71463;BMP180;59266;52.608;13.260;2023-05-20T10:19:27;102132.00;;;17.40
71463;BMP180;59266;52.608;13.260;2023-05-20T10:24:39;102133.00;;;17.60
71463;BMP180;59266;52.608;13.260;2023-05-20T10:27:08;102118.00;;;17.80
71463;BMP180;59266;52.608;13.260;2023-05-20T10:32:30;102098.00;;;18.30
71463;BMP180;59266;52.608;13.260;2023-05-20T10:34:59;102106.00;;;18.60
71463;BMP180;59266;52.608;13.260;2023-05-20T10:37:33;102098.00;;;19.00
71463;BMP180;59266;52.608;13.260;2023-05-20T10:40:07;102100.00;;;18.90
71463;BMP180;59266;52.608;13.260;2023-05-20T10:42:36;102089.00;;;19.30
71463;BMP180;59266;52.608;13.260;2023-05-20T10:45:04;102090.00;;;20.10
71463;BMP180;59266;52.608;13.260;2023-05-20T10:47:33;102091.00;;;19.50
71463;BMP180;59266;52.608;13.260;2023-05-20T10:49:59;102110.00;;;19.10
71463;BMP180;59266;52.608;13.260;2023-05-20T10:52:37;102096.00;;;19.10
71463;BMP180;59266;52.608;13.260;2023-05-20T10:55:04;102093.00;;;18.60
71463;BMP180;59266;52.608;13.260;2023-05-20T10:57:33;102077.00;;;19.30
71463;BMP180;59266;52.608;13.260;2023-05-20T10:59:59;102073.00;;;19.80
71463;BMP180;59266;52.608;13.260;2023-05-20T11:02:27;102070.00;;;19.50
71463;BMP180;59266;52.608;13.260;2023-05-20T11:04:58;102081.00;;;19.80
71463;BMP180;59266;52.608;13.260;2023-05-20T11:07:29;102087.00;;;19.30
71463;BMP180;59266;52.608;13.260;2023-05-20T11:09:58;102080.00;;;19.60
71463;BMP180;59266;52.608;13.260;2023-05-20T11:12:26;102077.00;;;20.00
71463;BMP180;59266;52.608;13.260;2023-05-20T11:14:53;102069.00;;;20.60
71463;BMP180;59266;52.608;13.260;2023-05-20T11:17:20;102062.00;;;20.60
71463;BMP180;59266;52.608;13.260;2023-05-20T11:19:47;102066.00;;;20.10
71463;BMP180;59266;52.608;13.260;2023-05-20T11:22:14;102053.00;;;21.20
71463;BMP180;59266;52.608;13.260;2023-05-20T11:24:41;102060.00;;;20.80
71463;BMP180;59266;52.608;13.260;2023-05-20T11:27:08;102060.00;;;20.30
71463;BMP180;59266;52.608;13.260;2023-05-20T11:29:35;102066.00;;;20.20
71463;BMP180;59266;52.608;13.260;2023-05-20T11:32:02;102064.00;;;19.90
71463;BMP180;59266;52.608;13.260;2023-05-20T11:34:36;102057.00;;;21.30
71463;BMP180;59266;52.608;13.260;2023-05-20T11:37:08;102066.00;;;21.50
71463;BMP180;59266;52.608;13.260;2023-05-20T11:39:37;102055.00;;;20.80
71463;BMP180;59266;52.608;13.260;2023-05-20T11:42:04;102048.00;;;20.80
71463;BMP180;59266;52.608;13.260;2023-05-20T11:44:36;102044.00;;;20.50
71463;BMP180;59266;52.608;13.260;2023-05-20T11:47:09;102050.00;;;20.70
71463;BMP180;59266;52.608;13.260;2023-05-20T11:49:39;102050.00;;;20.80
71463;BMP180;59266;52.608;13.260;2023-05-20T11:52:08;102050.00;;;20.80
71463;BMP180;59266;52.608;13.260;2023-05-20T11:54:35;102039.00;;;20.70
71463;BMP180;59266;52.608;13.260;2023-05-20T11:57:02;102051.00;;;20.80
71463;BMP180;59266;52.608;13.260;2023-05-20T11:59:32;102051.00;;;20.70
71463;BMP180;59266;52.608;13.260;2023-05-20T12:01:58;102048.00;;;20.70
71463;BMP180;59266;52.608;13.260;2023-05-20T12:04:25;102054.00;;;20.60
71463;BMP180;59266;52.608;13.260;2023-05-20T12:06:54;102039.00;;;20.70
71463;BMP180;59266;52.608;13.260;2023-05-20T12:09:21;102025.00;;;21.40
71463;BMP180;59266;52.608;13.260;2023-05-20T12:11:49;102022.00;;;21.90
71463;BMP180;59266;52.608;13.260;2023-05-20T12:14:16;102028.00;;;22.30
71463;BMP180;59266;52.608;13.260;2023-05-20T12:16:46;101995.00;;;22.00
71463;BMP180;59266;52.608;13.260;2023-05-20T12:19:12;101996.00;;;22.80
71463;BMP180;59266;52.608;13.260;2023-05-20T12:21:42;102012.00;;;24.10
71463;BMP180;59266;52.608;13.260;2023-05-20T12:24:08;102018.00;;;22.90
71463;BMP180;59266;52.608;13.260;2023-05-20T12:26:36;102013.00;;;22.30
71463;BMP180;59266;52.608;13.260;2023-05-20T12:29:03;101977.00;;;22.50
71463;BMP180;59266;52.608;13.260;2023-05-20T12:31:30;101972.00;;;22.80
71463;BMP180;59266;52.608;13.260;2023-05-20T12:34:00;101983.00;;;23.60
71463;BMP180;59266;52.608;13.260;2023-05-20T12:36:27;101973.00;;;23.90
71463;BMP180;59266;52.608;13.260;2023-05-20T12:38:54;101968.00;;;24.00
71463;BMP180;59266;52.608;13.260;2023-05-20T12:41:21;101995.00;;;22.90
71463;BMP180;59266;52.608;13.260;2023-05-20T12:43:47;101962.00;;;22.70
71463;BMP180;59266;52.608;13.260;2023-05-20T12:46:17;101986.00;;;22.40
71463;BMP180;59266;52.608;13.260;2023-05-20T12:48:44;101968.00;;;22.10
71463;BMP180;59266;52.608;13.260;2023-05-20T12:51:10;101945.00;;;22.50
71463;BMP180;59266;52.608;13.260;2023-05-20T12:53:37;101970.00;;;22.90
71463;BMP180;59266;52.608;13.260;2023-05-20T12:56:05;101976.00;;;23.10
71463;BMP180;59266;52.608;13.260;2023-05-20T12:58:33;101956.00;;;23.10
71463;BMP180;59266;52.608;13.260;2023-05-20T13:01:00;101979.00;;;22.60
71463;BMP180;59266;52.608;13.260;2023-05-20T13:03:26;101985.00;;;22.20
71463;BMP180;59266;52.608;13.260;2023-05-20T13:05:53;101975.00;;;21.60
71463;BMP180;59266;52.608;13.260;2023-05-20T13:08:20;101953.00;;;21.20
71463;BMP180;59266;52.608;13.260;2023-05-20T13:10:46;101926.00;;;22.10
71463;BMP180;59266;52.608;13.260;2023-05-20T13:13:13;101936.00;;;22.40
71463;BMP180;59266;52.608;13.260;2023-05-20T13:15:47;101930.00;;;22.80
71463;BMP180;59266;52.608;13.260;2023-05-20T13:18:16;101910.00;;;22.10
71463;BMP180;59266;52.608;13.260;2023-05-20T13:20:44;101910.00;;;22.70
71463;BMP180;59266;52.608;13.260;2023-05-20T13:23:11;101952.00;;;23.40
71463;BMP180;59266;52.608;13.260;2023-05-20T13:25:38;101931.00;;;22.90
71463;BMP180;59266;52.608;13.260;2023-05-20T13:28:04;101907.00;;;23.20
71463;BMP180;59266;52.608;13.260;2023-05-20T13:30:31;101906.00;;;22.80
71463;BMP180;59266;52.608;13.260;2023-05-20T13:32:58;101902.00;;;23.60
71463;BMP180;59266;52.608;13.260;2023-05-20T13:35:25;101901.00;;;23.70
71463;BMP180;59266;52.608;13.260;2023-05-20T13:37:52;101895.00;;;24.40
71463;BMP180;59266;52.608;13.260;2023-05-20T13:40:19;101905.00;;;23.70
71463;BMP180;59266;52.608;13.260;2023-05-20T13:42:45;101902.00;;;23.80
71463;BMP180;59266;52.608;13.260;2023-05-20T13:45:12;101905.00;;;23.40
71463;BMP180;59266;52.608;13.260;2023-05-20T13:47:38;101896.00;;;24.10
71463;BMP180;59266;52.608;13.260;2023-05-20T13:50:05;101906.00;;;24.40
71463;BMP180;59266;52.608;13.260;2023-05-20T13:52:32;101897.00;;;24.30
71463;BMP180;59266;52.608;13.260;2023-05-20T13:54:59;101892.00;;;24.60
71463;BMP180;59266;52.608;13.260;2023-05-20T13:57:26;101889.00;;;24.20
71463;BMP180;59266;52.608;13.260;2023-05-20T13:59:53;101888.00;;;24.20